MSC Oscar — 3FBT7 — position and weather

sailwx.info

Track history (hours):
 
Tides and Currents Weather Stations Pressure Air Temp Water Temp Dewpoint Dewpoint Depression Visibility Wind Speed Wind Dir Waves Ship Positions

MSC Oscar

Last reported at 2018-Jun-20 08:53 UTC. Time now 2018-Jun-23 06:26 UTC.
Position N 23°10' E 117°26'.

Length 396 m; draft 13.1 m.

Type: Ship (hazmat cat A). MMSI: 355906000.

Date/timePositionNaut miles runAvg speedWind from/ knotsBaromVisibWave heightAir tempDewpointWater temp
2018-Jun-20 08:53N 23°10' E 117°26'718.2
2018-Jun-20 08:30N 23°15' E 117°32'918.4
2018-Jun-20 08:00N 23°21' E 117°39'918.5
2018-Jun-20 07:30N 23°27' E 117°46'918.5
2018-Jun-20 07:00N 23°33' E 117°54'918.4
2018-Jun-20 06:30N 23°39' E 118°02'1018.7
2018-Jun-20 06:00N 23°45' E 118°10'918.7
2018-Jun-20 05:30N 23°51' E 118°17'918.3
2018-Jun-20 05:00N 23°57' E 118°25'918.0
2018-Jun-20 04:29N 24°02' E 118°34'918.2
2018-Jun-20 04:00N 24°08' E 118°41'918.4
2018-Jun-20 03:29N 24°14' E 118°49'42014.3
2018-Jun-18 22:10N 30°35' E 122°07'4 9.5
2018-Jun-18 21:47N 30°37' E 122°03'0 1.5
2018-Jun-18 21:28N 30°38' E 122°03'0 0.0
2018-Jun-18 20:58N 30°38' E 122°03'0 0.0
2018-Jun-18 20:28N 30°38' E 122°03'0 0.0
2018-Jun-18 19:58N 30°38' E 122°03'0 0.0
2018-Jun-18 19:28N 30°38' E 122°03'0 0.0
2018-Jun-18 18:49N 30°38' E 122°03'0 0.0
2018-Jun-18 18:25N 30°38' E 122°03'0 0.0
2018-Jun-18 17:58N 30°38' E 122°03'0 0.0
2018-Jun-18 17:25N 30°38' E 122°03'0 0.0
2018-Jun-18 16:46N 30°38' E 122°03'0 0.0
2018-Jun-18 16:25N 30°38' E 122°03'0 0.0
2018-Jun-18 15:55N 30°38' E 122°03'0 0.0
2018-Jun-18 15:19N 30°38' E 122°03'0 0.0
2018-Jun-18 14:55N 30°38' E 122°03'0 0.0
2018-Jun-18 14:28N 30°38' E 122°03'0 0.0
2018-Jun-18 13:52N 30°38' E 122°03'0 0.0
2018-Jun-18 13:28N 30°38' E 122°03'0 0.0
2018-Jun-18 12:58N 30°38' E 122°03'0 0.0
2018-Jun-18 12:19N 30°38' E 122°03'0 0.0
2018-Jun-18 11:58N 30°38' E 122°03'0 0.0
2018-Jun-18 11:25N 30°38' E 122°03'0 0.0
2018-Jun-18 10:58N 30°38' E 122°03'0 0.0
2018-Jun-18 09:40N 30°38' E 122°03'0 0.0
2018-Jun-18 09:13N 30°38' E 122°03'0 0.0
2018-Jun-18 08:58N 30°38' E 122°03'0 0.0
2018-Jun-18 08:28N 30°38' E 122°03'0 0.0
2018-Jun-18 07:46N 30°38' E 122°03'0 0.0
2018-Jun-18 07:28N 30°38' E 122°03'0 0.0
2018-Jun-18 06:58N 30°38' E 122°03'0 0.0
2018-Jun-18 06:16N 30°38' E 122°03'0 0.0
2018-Jun-18 05:58N 30°38' E 122°03'0 0.0
2018-Jun-18 05:28N 30°38' E 122°03'0 0.0
2018-Jun-18 02:49N 30°38' E 122°03'0 0.0
2018-Jun-18 02:10N 30°38' E 122°03'0 0.0
2018-Jun-18 01:58N 30°38' E 122°03'0 0.0
2018-Jun-18 01:28N 30°38' E 122°03'0 0.0
2018-Jun-18 00:58N 30°38' E 122°03'0 0.0
2018-Jun-18 00:16N 30°38' E 122°03'0 0.0
2018-Jun-17 23:58N 30°38' E 122°03'0 0.0
2018-Jun-17 23:28N 30°38' E 122°03'0 0.0
2018-Jun-17 22:58N 30°38' E 122°03'0 0.0
2018-Jun-17 22:28N 30°38' E 122°03'0 0.0
2018-Jun-17 21:58N 30°38' E 122°03'0 0.0
2018-Jun-17 21:16N 30°38' E 122°03'0 0.0
2018-Jun-17 20:52N 30°38' E 122°03'0 0.0
2018-Jun-17 20:28N 30°38' E 122°03'0 0.3
2018-Jun-17 19:59N 30°38' E 122°03'3 4.1
2018-Jun-17 19:10N 30°36' E 122°06'1 6.8
2018-Jun-17 19:00N 30°35' E 122°07'  
2018-Jun-14 09:03N 35°59' E 120°32'612.7
2018-Jun-14 08:32N 36°00' E 120°24'6 7.5
2018-Jun-14 07:47N 36°02' E 120°17'2 6.9
2018-Jun-14 07:29N 36°02' E 120°14'3 1.0
2018-Jun-14 04:40N 36°00' E 120°12'0 0.0
2018-Jun-14 04:19N 36°00' E 120°12'0 0.0
2018-Jun-14 03:43N 36°00' E 120°12'0 0.0
2018-Jun-14 03:25N 36°00' E 120°12'0 0.0
2018-Jun-14 01:40N 36°00' E 120°12'0 0.0
2018-Jun-14 01:10N 36°00' E 120°12'0 0.0
2018-Jun-14 00:51N 36°00' E 120°12'0 0.0
2018-Jun-14 00:16N 36°00' E 120°12'0 0.0
2018-Jun-14 00:01N 36°00' E 120°12'0 0.0
2018-Jun-13 23:27N 36°00' E 120°12'0 0.0
2018-Jun-13 22:50N 36°00' E 120°12'0 0.0
2018-Jun-13 09:45N 36°00' E 120°12'0 1.0
2018-Jun-13 09:26N 36°00' E 120°12'3 7.4
2018-Jun-13 08:58N 36°02' E 120°16'4 6.8
2018-Jun-13 08:19N 36°01' E 120°21'5 6.5
2018-Jun-13 07:32N 36°00' E 120°27'2 8.6
2018-Jun-13 07:17N 35°60' E 120°30'  
Track history (hours):
 
Tides and Currents Weather Stations Pressure Air Temp Water Temp Dewpoint Dewpoint Depression Visibility Wind Speed Wind Dir Waves Ship Positions

MSC Oscar

Last reported at 2018-Jun-20 08:53 UTC. Time now 2018-Jun-23 06:26 UTC.
Position N 23°10' E 117°26'.

Length 396 m; draft 13.1 m.

Type: Ship (hazmat cat A). MMSI: 355906000.

Date/timePositionNaut miles runAvg speedWind from/ knotsBaromVisibWave heightAir tempDewpointWater temp
2018-Jun-20 08:53N 23°10' E 117°26'718.2
2018-Jun-20 08:30N 23°15' E 117°32'918.4
2018-Jun-20 08:00N 23°21' E 117°39'918.5
2018-Jun-20 07:30N 23°27' E 117°46'918.5
2018-Jun-20 07:00N 23°33' E 117°54'918.4
2018-Jun-20 06:30N 23°39' E 118°02'1018.7
2018-Jun-20 06:00N 23°45' E 118°10'918.7
2018-Jun-20 05:30N 23°51' E 118°17'918.3
2018-Jun-20 05:00N 23°57' E 118°25'918.0
2018-Jun-20 04:29N 24°02' E 118°34'918.2
2018-Jun-20 04:00N 24°08' E 118°41'918.4
2018-Jun-20 03:29N 24°14' E 118°49'42014.3
2018-Jun-18 22:10N 30°35' E 122°07'4 9.5
2018-Jun-18 21:47N 30°37' E 122°03'0 1.5
2018-Jun-18 21:28N 30°38' E 122°03'0 0.0
2018-Jun-18 20:58N 30°38' E 122°03'0 0.0
2018-Jun-18 20:28N 30°38' E 122°03'0 0.0
2018-Jun-18 19:58N 30°38' E 122°03'0 0.0
2018-Jun-18 19:28N 30°38' E 122°03'0 0.0
2018-Jun-18 18:49N 30°38' E 122°03'0 0.0
2018-Jun-18 18:25N 30°38' E 122°03'0 0.0
2018-Jun-18 17:58N 30°38' E 122°03'0 0.0
2018-Jun-18 17:25N 30°38' E 122°03'0 0.0
2018-Jun-18 16:46N 30°38' E 122°03'0 0.0
2018-Jun-18 16:25N 30°38' E 122°03'0 0.0
2018-Jun-18 15:55N 30°38' E 122°03'0 0.0
2018-Jun-18 15:19N 30°38' E 122°03'0 0.0
2018-Jun-18 14:55N 30°38' E 122°03'0 0.0
2018-Jun-18 14:28N 30°38' E 122°03'0 0.0
2018-Jun-18 13:52N 30°38' E 122°03'0 0.0
2018-Jun-18 13:28N 30°38' E 122°03'0 0.0
2018-Jun-18 12:58N 30°38' E 122°03'0 0.0
2018-Jun-18 12:19N 30°38' E 122°03'0 0.0
2018-Jun-18 11:58N 30°38' E 122°03'0 0.0
2018-Jun-18 11:25N 30°38' E 122°03'0 0.0
2018-Jun-18 10:58N 30°38' E 122°03'0 0.0
2018-Jun-18 09:40N 30°38' E 122°03'0 0.0
2018-Jun-18 09:13N 30°38' E 122°03'0 0.0
2018-Jun-18 08:58N 30°38' E 122°03'0 0.0
2018-Jun-18 08:28N 30°38' E 122°03'0 0.0
2018-Jun-18 07:46N 30°38' E 122°03'0 0.0
2018-Jun-18 07:28N 30°38' E 122°03'0 0.0
2018-Jun-18 06:58N 30°38' E 122°03'0 0.0
2018-Jun-18 06:16N 30°38' E 122°03'0 0.0
2018-Jun-18 05:58N 30°38' E 122°03'0 0.0
2018-Jun-18 05:28N 30°38' E 122°03'0 0.0
2018-Jun-18 02:49N 30°38' E 122°03'0 0.0
2018-Jun-18 02:10N 30°38' E 122°03'0 0.0
2018-Jun-18 01:58N 30°38' E 122°03'0 0.0
2018-Jun-18 01:28N 30°38' E 122°03'0 0.0
2018-Jun-18 00:58N 30°38' E 122°03'0 0.0
2018-Jun-18 00:16N 30°38' E 122°03'0 0.0
2018-Jun-17 23:58N 30°38' E 122°03'0 0.0
2018-Jun-17 23:28N 30°38' E 122°03'0 0.0
2018-Jun-17 22:58N 30°38' E 122°03'0 0.0
2018-Jun-17 22:28N 30°38' E 122°03'0 0.0
2018-Jun-17 21:58N 30°38' E 122°03'0 0.0
2018-Jun-17 21:16N 30°38' E 122°03'0 0.0
2018-Jun-17 20:52N 30°38' E 122°03'0 0.0
2018-Jun-17 20:28N 30°38' E 122°03'0 0.3
2018-Jun-17 19:59N 30°38' E 122°03'3 4.1
2018-Jun-17 19:10N 30°36' E 122°06'1 6.8
2018-Jun-17 19:00N 30°35' E 122°07'  
2018-Jun-14 09:03N 35°59' E 120°32'612.7
2018-Jun-14 08:32N 36°00' E 120°24'6 7.5
2018-Jun-14 07:47N 36°02' E 120°17'2 6.9
2018-Jun-14 07:29N 36°02' E 120°14'3 1.0
2018-Jun-14 04:40N 36°00' E 120°12'0 0.0
2018-Jun-14 04:19N 36°00' E 120°12'0 0.0
2018-Jun-14 03:43N 36°00' E 120°12'0 0.0
2018-Jun-14 03:25N 36°00' E 120°12'0 0.0
2018-Jun-14 01:40N 36°00' E 120°12'0 0.0
2018-Jun-14 01:10N 36°00' E 120°12'0 0.0
2018-Jun-14 00:51N 36°00' E 120°12'0 0.0
2018-Jun-14 00:16N 36°00' E 120°12'0 0.0
2018-Jun-14 00:01N 36°00' E 120°12'0 0.0
2018-Jun-13 23:27N 36°00' E 120°12'0 0.0
2018-Jun-13 22:50N 36°00' E 120°12'0 0.0
2018-Jun-13 09:45N 36°00' E 120°12'0 1.0
2018-Jun-13 09:26N 36°00' E 120°12'3 7.4
2018-Jun-13 08:58N 36°02' E 120°16'4 6.8
2018-Jun-13 08:19N 36°01' E 120°21'5 6.5
2018-Jun-13 07:32N 36°00' E 120°27'2 8.6
2018-Jun-13 07:17N 35°60' E 120°30'  

Dump ship's entire track history